Chesterton, IN

12:09 AM CDT on May 07, 2015 (GMT -0500)
Roxy Weather in Tamarack | | Change Station
CLOSE
Current Station
Personal Weather Station
Location: Chesterton, IN
Elevation: 650 ft
Nearby Weather Stations

Elev 650 ft 41.59 °N, 87.05 °W | Updated 32 seconds ago

Partly Cloudy
Partly Cloudy
67.8 °F
Feels Like 67.8 °F
N
2.2
Wind Variable Wind from East
Gusts 6.0 mph

Today
High -- | Low -- °F
--% Chance of Precip.
Yesterday
High -- | Low -- °F
Precip. -- in
5:37 AM 7:52 PM
Waning Gibbous, 90% visible
Pressure 30.09 in
Visibility 10.0 miles
Clouds Clear
Dew Point 60 °F
Humidity 77%
Rainfall 0.00 in
Snow Depth Not available.
UV 0 out of 12
Pollen 8.20 out of 12
Air Quality Not available.
Flu Activity Local Activity
METAR KVPZ 070456Z AUTO 10005KT 10SM CLR 18/12 A3010 RMK AO2 SLP190 T01780122 TSNO $

More Conditions Fewer Conditions

Pressure 30.09 in
Visibility 10.0 miles
Clouds Clear
Dew Point 60 °F
Humidity 77%
Rainfall 0.00 in
Snow Depth Not available.
UV 0 out of 12
Pollen 8.20 out of 12
Air Quality Not available.
Flu Activity Local Activity
METAR KVPZ 070456Z AUTO 10005KT 10SM CLR 18/12 A3010 RMK AO2 SLP190 T01780122 TSNO $

More Conditions Fewer Conditions

10-Day Weather Forecast

Almanac

Astronomy

May. 07, 2015 Rise Set
Actual Time
Civil Twilight
Nautical Twilight
Astronomical Twilight
Moon
Length of Visible Light
Length of Day
Tomorrow will be .
, % of the Moon is Illuminated

Today's Extremes

State Highs State Lows

Community

WunderPhotos

Upload Photos

1,819,123 photos uploaded!

WunderBlogs® & News

Nearby

Air Quality

  Air Quality AQ Index Pollutant
Not available.

Snow Depth

Station Depth Elevation

Earthquake Activity

City Distance Mag. Time & Date
Minimum magnitude displayed is 2.5.

Coastal Water Temperatures

Place Temperature

Stations

Nearby Weather Stations

Station Location Temp. Windchill Dew Point Humidity Wind Precip. Elev Updated Type